Repülésmeteorológia

  • METAR LHSM 221545Z 24003KT 9999 -SHRA FEW010 BKN076 OVC083 13/11
  • METAR LHSM 221515Z 23003KT 9999 FEW010 BKN076 OVC083 13/11 Q1024
  • METAR LHSM 221445Z 23004KT 9999 -SHRA FEW010 BKN076 OVC083 13/11
  • METAR LHSM 221415Z 25005KT 9999 FEW010 BKN080 OVC083 13/11 Q1024
  • METAR LHSM 221345Z 27004KT CAVOK 13/11 Q1024 NOSIG=

  • TAF LHSM 221415Z 2215/2224 VRB03KT CAVOK
  • TAF LHSM 221115Z 2212/2221 34006KT 9999 SCT040 BKN060
  • TAF LHSM 220815Z 2209/2218 35015G28KT 9999 SCT035 BKN060
  • TAF LHSM 220515Z 2206/2215 35018G30KT 9999 SCT035 BKN070
  • TAF LHSM 211115Z 2112/2121 17007KT CAVOK BECMG 2116/2119 VRB03KT=